createdAt,value
2023-02-22T00:01:55.066Z,21.6
2023-02-22T00:06:54.876Z,21.5
2023-02-22T00:11:54.905Z,21.7
2023-02-22T00:16:55.093Z,21.6
2023-02-22T00:21:56.125Z,21.6
2023-02-22T00:26:56.197Z,21.6
2023-02-22T00:31:56.369Z,21.6
2023-02-22T00:36:56.290Z,21.5
2023-02-22T00:41:56.735Z,21.5
2023-02-22T00:46:56.882Z,21.5
2023-02-22T00:51:56.775Z,21.5
2023-02-22T00:56:57.129Z,21.5
2023-02-22T01:01:57.507Z,21.6
2023-02-22T01:06:57.790Z,21.5
2023-02-22T01:11:57.943Z,21.5
2023-02-22T01:16:57.981Z,21.3
2023-02-22T01:21:58.260Z,21.5
2023-02-22T01:26:58.445Z,21.5
2023-02-22T01:31:58.637Z,21.5
2023-02-22T01:36:58.674Z,21.5
2023-02-22T01:41:58.838Z,21.5
2023-02-22T01:46:59.176Z,21.5
2023-02-22T01:51:59.526Z,21.4
2023-02-22T01:56:59.599Z,21.4
2023-02-22T02:02:00.026Z,21.3
2023-02-22T02:07:02.834Z,21.5
2023-02-22T02:12:02.710Z,21.5
2023-02-22T02:17:03.279Z,21.4
2023-02-22T02:22:03.320Z,21.4
2023-02-22T02:27:03.531Z,21.4
2023-02-22T02:32:03.813Z,21.4
2023-02-22T02:37:06.772Z,21.4
2023-02-22T02:42:06.740Z,21.4
2023-02-22T02:47:07.814Z,21.4
2023-02-22T02:52:08.135Z,21.4
2023-02-22T02:57:08.351Z,21.4
2023-02-22T03:02:08.622Z,21.3
2023-02-22T03:07:08.976Z,21.4
2023-02-22T03:12:11.820Z,21.2
2023-02-22T03:17:11.570Z,21.3
2023-02-22T03:22:11.757Z,21.2
2023-02-22T03:27:12.161Z,21.3
2023-02-22T03:32:12.360Z,21.3
2023-02-22T03:37:12.744Z,21.3
2023-02-22T03:42:13.048Z,21.3
2023-02-22T03:47:13.276Z,21.2
2023-02-22T03:52:13.388Z,21.1
2023-02-22T03:57:13.860Z,21.2
2023-02-22T04:02:14.286Z,21.1
2023-02-22T04:07:17.374Z,21.1
2023-02-22T04:12:17.934Z,21
2023-02-22T04:17:18.122Z,21.2
2023-02-22T04:22:18.157Z,21.2
2023-02-22T04:27:18.599Z,21.2
2023-02-22T04:32:18.864Z,21.1
2023-02-22T04:37:18.699Z,21.1
2023-02-22T04:42:17.683Z,21.1
2023-02-22T04:47:18.309Z,21.1
2023-02-22T04:52:18.427Z,21.1
2023-02-22T04:57:18.536Z,21
2023-02-22T05:02:18.730Z,21.1
2023-02-22T05:07:18.923Z,21.1
2023-02-22T05:12:20.034Z,20.9
2023-02-22T05:17:19.982Z,21
2023-02-22T05:22:20.327Z,21
2023-02-22T05:27:20.267Z,21
2023-02-22T05:32:20.717Z,20.8
2023-02-22T05:37:20.784Z,21.1
2023-02-22T05:42:23.839Z,21.1
2023-02-22T05:47:23.627Z,21.1
2023-02-22T05:52:26.796Z,21.2
2023-02-22T05:57:28.377Z,21.3
2023-02-22T06:02:28.041Z,21.5
2023-02-22T06:07:28.310Z,21.5
2023-02-22T06:12:28.439Z,21.4
2023-02-22T06:17:28.945Z,21.6
2023-02-22T06:22:31.809Z,21.7
2023-02-22T06:27:31.530Z,21.5
2023-02-22T06:32:31.952Z,21.7
2023-02-22T06:37:32.267Z,21.8
2023-02-22T06:42:32.383Z,21.8
2023-02-22T06:47:33.717Z,22
2023-02-22T06:52:33.761Z,21.9
2023-02-22T06:57:34.270Z,22
2023-02-22T07:02:34.491Z,22
2023-02-22T07:07:34.756Z,22.1
2023-02-22T07:12:34.979Z,22.1
2023-02-22T07:17:35.188Z,22.1
2023-02-22T07:22:35.456Z,22.2
2023-02-22T07:27:36.570Z,22.2
2023-02-22T07:32:36.531Z,22.2
2023-02-22T07:37:36.761Z,22.1
2023-02-22T07:42:37.062Z,22.1
2023-02-22T07:47:37.520Z,22.2
2023-02-22T07:52:37.776Z,22.3
2023-02-22T07:57:38.008Z,22.2
2023-02-22T08:02:38.385Z,22.1
2023-02-22T08:07:38.597Z,22.4
2023-02-22T08:12:41.144Z,22.3
2023-02-22T08:17:41.230Z,22.3
2023-02-22T08:22:41.384Z,22.3
2023-02-22T08:27:41.705Z,22.3
2023-02-22T08:32:41.784Z,22.2
2023-02-22T08:37:41.748Z,22.2
2023-02-22T08:42:41.867Z,22.2
2023-02-22T08:47:42.256Z,22.1
2023-02-22T08:52:42.418Z,22.2
2023-02-22T08:57:42.559Z,22.2
2023-02-22T09:02:45.514Z,22.3
2023-02-22T09:07:45.324Z,22.1
2023-02-22T09:12:45.405Z,22.2
2023-02-22T09:17:45.378Z,22.2
2023-02-22T09:22:45.774Z,22.2
2023-02-22T09:27:46.176Z,22.3
2023-02-22T09:32:46.359Z,22
2023-02-22T09:37:46.209Z,22.1
2023-02-22T09:42:46.597Z,22
2023-02-22T09:47:49.728Z,22.1
2023-02-22T09:52:49.448Z,22.2
2023-02-22T09:57:49.620Z,22.2
2023-02-22T10:02:49.875Z,22.2
2023-02-22T10:07:50.418Z,22.2
2023-02-22T10:12:51.566Z,22.3
2023-02-22T10:17:51.627Z,22.2
2023-02-22T10:22:51.919Z,22.2
2023-02-22T10:27:52.227Z,22.3
2023-02-22T10:32:52.597Z,22.4
2023-02-22T10:37:52.903Z,22.3
2023-02-22T10:42:53.228Z,22.3
2023-02-22T10:47:53.377Z,22.3
2023-02-22T10:52:53.800Z,22.1
2023-02-22T10:57:54.181Z,22.4
2023-02-22T11:02:54.375Z,22.4
2023-02-22T11:07:54.586Z,22.5
2023-02-22T11:12:54.813Z,22.5
2023-02-22T11:17:55.301Z,22.5
2023-02-22T11:22:55.610Z,22.6
2023-02-22T11:27:56.121Z,22.6
2023-02-22T11:32:56.318Z,22.6
2023-02-22T11:37:56.453Z,22.6
2023-02-22T11:42:56.738Z,22.5
2023-02-22T11:47:57.095Z,22.5
2023-02-22T11:52:59.907Z,22.8
2023-02-22T11:57:59.507Z,22.8
2023-02-22T12:02:59.735Z,22.8
2023-02-22T12:08:01.516Z,22.8
2023-02-22T12:13:00.425Z,22.8
2023-02-22T12:18:00.691Z,22.9
2023-02-22T12:23:00.716Z,22.7
2023-02-22T12:28:01.157Z,22.8
2023-02-22T12:33:01.591Z,22.8
2023-02-22T12:38:02.046Z,22.8
2023-02-22T12:43:04.873Z,23
2023-02-22T12:48:04.631Z,22.9
2023-02-22T12:53:07.833Z,23
2023-02-22T12:58:07.537Z,22.8
2023-02-22T13:03:09.664Z,22.9
2023-02-22T13:08:09.242Z,23
2023-02-22T13:13:08.514Z,23.1
2023-02-22T13:18:08.862Z,23
2023-02-22T13:23:09.318Z,22.7
2023-02-22T13:28:09.179Z,23.1
2023-02-22T13:33:09.443Z,23.1
2023-02-22T13:38:12.431Z,23.1
2023-02-22T13:43:12.060Z,23.1
2023-02-22T13:48:12.126Z,23.1
2023-02-22T13:53:14.999Z,23.2
2023-02-22T13:58:14.632Z,23
2023-02-22T14:03:14.901Z,23
2023-02-22T14:08:15.129Z,22.8
2023-02-22T14:13:15.316Z,23.3
2023-02-22T14:18:15.570Z,23.2
2023-02-22T14:23:15.914Z,23.2
2023-02-22T14:28:15.911Z,23.3
2023-02-22T14:33:18.972Z,23.2
2023-02-22T14:38:18.738Z,23.2
2023-02-22T14:43:19.120Z,23.3
2023-02-22T14:48:22.164Z,23.3
2023-02-22T14:53:21.858Z,23.4
2023-02-22T14:58:24.785Z,23.4
2023-02-22T15:03:29.092Z,23.3
2023-02-22T15:08:29.994Z,23.4
2023-02-22T15:13:29.975Z,23.3
2023-02-22T15:18:30.200Z,23.4
2023-02-22T15:23:35.721Z,23.3
2023-02-22T15:28:34.957Z,23.2
2023-02-22T15:33:35.415Z,23.4
2023-02-22T15:38:35.473Z,23.3
2023-02-22T15:43:35.796Z,23.2
2023-02-22T15:48:38.557Z,23.4
2023-02-22T15:53:38.335Z,23.4
2023-02-22T15:58:41.411Z,23.4
2023-02-22T16:03:44.070Z,23.4
2023-02-22T16:08:54.645Z,23.4
2023-02-22T16:13:46.410Z,23.3
2023-02-22T16:18:49.386Z,23.4
2023-02-22T16:23:49.119Z,23.3
2023-02-22T16:28:49.444Z,23.3
2023-02-22T16:33:49.581Z,23.4
2023-02-22T16:38:52.644Z,23.5
2023-02-22T16:43:55.386Z,23.5
2023-02-22T16:48:55.386Z,23.5
2023-02-22T16:53:55.521Z,23.4
2023-02-22T16:58:56.647Z,23.4
2023-02-22T17:03:56.591Z,23.3
2023-02-22T17:08:56.874Z,23.4
2023-02-22T17:13:57.233Z,23.2
2023-02-22T17:19:00.195Z,23.5
2023-02-22T17:23:59.978Z,23.3
2023-02-22T17:29:00.226Z,23.3
2023-02-22T17:34:03.147Z,23.4
2023-02-22T17:39:02.871Z,23.3
2023-02-22T17:44:03.104Z,23.4
2023-02-22T17:49:04.520Z,23.5
2023-02-22T17:54:04.472Z,23.5
2023-02-22T17:59:07.439Z,23.4
2023-02-22T18:04:07.147Z,23.4
2023-02-22T18:09:07.113Z,23.4
2023-02-22T18:14:09.165Z,23.2
2023-02-22T18:19:11.226Z,23.2
2023-02-22T18:24:10.690Z,23.3
2023-02-22T18:29:10.630Z,23.3
2023-02-22T18:34:10.729Z,23.3
2023-02-22T18:39:10.879Z,23.3
2023-02-22T18:44:11.113Z,23.3
2023-02-22T18:49:11.220Z,23.3
2023-02-22T18:54:11.230Z,23.2
2023-02-22T18:59:11.670Z,23
2023-02-22T19:04:11.879Z,23.2
2023-02-22T19:09:12.060Z,23
2023-02-22T19:14:12.280Z,23
2023-02-22T19:19:15.225Z,23
2023-02-22T19:24:14.810Z,23
2023-02-22T19:29:14.747Z,22.9
2023-02-22T19:34:13.585Z,22.9
2023-02-22T19:39:14.222Z,22.9
2023-02-22T19:44:14.408Z,22.9
2023-02-22T19:49:14.829Z,22.7
2023-02-22T19:54:15.101Z,22.8
2023-02-22T19:59:15.254Z,22.7
2023-02-22T20:04:15.485Z,22.8
2023-02-22T20:09:15.684Z,22.6
2023-02-22T20:14:16.006Z,22.8
2023-02-22T20:19:16.257Z,22.6
2023-02-22T20:24:16.501Z,22.7
2023-02-22T20:29:16.580Z,22.7
2023-02-22T20:34:17.110Z,22.5
2023-02-22T20:39:17.416Z,22.6
2023-02-22T20:44:17.525Z,22.6
2023-02-22T20:49:17.727Z,22.6
2023-02-22T20:54:17.981Z,22.6
2023-02-22T20:59:20.953Z,22.6
2023-02-22T21:04:20.850Z,22.6
2023-02-22T21:09:20.778Z,22.6
2023-02-22T21:14:20.936Z,22.5
2023-02-22T21:19:21.107Z,22.5
2023-02-22T21:24:21.369Z,22.5
2023-02-22T21:29:24.207Z,22.5
2023-02-22T21:34:23.980Z,22.5
2023-02-22T21:39:24.169Z,22.5
2023-02-22T21:44:24.458Z,22.5
2023-02-22T21:49:24.741Z,22.4
2023-02-22T21:54:24.904Z,22.5
2023-02-22T21:59:25.235Z,22.4
2023-02-22T22:04:25.045Z,22.4
2023-02-22T22:09:25.443Z,22.4
2023-02-22T22:14:25.353Z,22.4
2023-02-22T22:19:25.688Z,22.4
2023-02-22T22:24:28.428Z,22.4
2023-02-22T22:29:28.430Z,22.3
2023-02-22T22:34:28.401Z,22.3
2023-02-22T22:39:31.528Z,22.4
2023-02-22T22:44:31.358Z,22.3
2023-02-22T22:49:31.725Z,22.4
2023-02-22T22:54:31.887Z,22.3
2023-02-22T22:59:32.106Z,22.3
2023-02-22T23:04:33.229Z,22.1
2023-02-22T23:09:33.472Z,22.3
2023-02-22T23:14:35.464Z,22.2
2023-02-22T23:19:38.175Z,22.2
2023-02-22T23:24:37.754Z,22.2
2023-02-22T23:29:37.918Z,22.2
2023-02-22T23:34:38.544Z,22.3
2023-02-22T23:39:39.031Z,22.2
2023-02-22T23:44:39.163Z,22.2
2023-02-22T23:49:39.270Z,22.2
2023-02-22T23:54:39.632Z,22.1
2023-02-22T23:59:40.035Z,22
